Terminal Aerodrome Forecast
Issued by NWS Shreveport, LA

Home | Current Version | Previous Version | Text Only | Print | Product List | Glossary On
Versions: 1 2 3 4 5 6 7 8 9 10 11 12 13 14
000
FTUS44 KSHV 292300
TAFSHV
TAF
KSHV 292320Z 3000/3024 13006KT P6SM VCTS SCT060CB SCT100 BKN290
      TEMPO 3000/3002 VRB14G25KT 3SM -TSRA OVC030CB
     FM300200 16006KT P6SM VCSH SCT050 BKN120 BKN250
     FM300500 15004KT P6SM BKN120 BKN250
     FM301100 VRB04KT P6SM SCT008 BKN013
     FM301400 VRB05KT P6SM VCSH BKN008
     FM301600 17006KT P6SM VCTS BKN030CB=

USA.gov is the U.S. government's official web portal to all federal, state and local government web resources and services.